Ana Sayfa
METAR-TAF:

METAR-TAF

Havaalanları :

Calgary, Alberta, Kanada

Enlem: 51-07N, Boylam: 114-01W, yükseklik: 1077 m

Güncel hava durumu gözlemi

Rapor saat 05:00 UTC de 8 saat ve 40 dakika önce yapıldı.
Rüzgar güneydan 7 kt
Sıcaklık 13°C
Nem 58%
Basınç 1025 hPa
Görüş mesafesi: 11.3 km
23000 ft yükseklikte az bulutlu

METAR: CYYC 210500Z 19007KT 7SM FEW230 13/05 A3028 RMK FU1CI1 FU SLP267 DENSITY ALT 3900FT

Saat: 07:40 (13:40 UTC)

Tahmin

Rapor saat 02:38 UTC de 11 saat ve 2 dakika önce yapıldı.
Ayın 21'si saat 03 UTC'den ayın 21'si saat 24 UTC'ye kadar geçerli Tahmin
Rüzgar güneydan 8 kt
Görüş mesafesi: 10 km
24000 ft yükseklikte az bulutlu
Dönüşüyor
ayın 21'si saat 12 UTC'den ayın 21'si saat 14 UTC'ye kadar
Rüzgar güneybatıdan 6 kt
Ayın 21'si saat 2000 UTC'den
Rüzgar güneydan 8 kt
Görüş mesafesi: 10 km
25000 ft yükseklikte az bulutlu

TAF: CYYC 210238Z 2103/2124 18008KT P6SM FEW240 BECMG 2112/2114 22006KT FM212000 18008KT P6SM FEW250 RMK NXT FCST BY 210600Z

4.000'den fazla havaalanı için hava durumu gözlemleri ve tahminleri (METAR ve TAF raporları).

Kullanılabilir istasyonlar harita üzerinde sarı ve kırmızı noktalarla gösterilir.

İstasyonun adını görmek için fareyi noktanın üzerinde gezdirin.

Sonrasında hava gözlem ve tahminlerini görmek için tıklayın.

Haritayı değiştirmek için: yaklaştırmak için siyah artı işaretli yeşil düğmeye ve uzaklaştırmak için de eksi işaretli düğmeye hızla tıklayın; bitişik haritalar için yeşil okları kullanın.


METAR-TAF: